sensor_id;sensor_type;location;lat;lon;timestamp;P1;durP1;ratioP1;P2;durP2;ratioP2
78820;SDS011;68171;13.882;99.692;2023-04-03T00:00:28;35.78;;;30.13;;
78820;SDS011;68171;13.882;99.692;2023-04-03T00:01:35;38.83;;;30.08;;
78820;SDS011;68171;13.882;99.692;2023-04-03T00:02:41;37.58;;;29.98;;
78820;SDS011;68171;13.882;99.692;2023-04-03T00:03:50;39.97;;;31.03;;
78820;SDS011;68171;13.882;99.692;2023-04-03T00:04:56;33.28;;;29.48;;
78820;SDS011;68171;13.882;99.692;2023-04-03T00:06:03;33.75;;;28.80;;
78820;SDS011;68171;13.882;99.692;2023-04-03T00:07:10;34.40;;;28.92;;
78820;SDS011;68171;13.882;99.692;2023-04-03T00:08:18;36.75;;;29.52;;
78820;SDS011;68171;13.882;99.692;2023-04-03T00:09:23;34.65;;;28.30;;
78820;SDS011;68171;13.882;99.692;2023-04-03T00:10:30;33.92;;;29.10;;
78820;SDS011;68171;13.882;99.692;2023-04-03T00:11:36;36.15;;;30.80;;
78820;SDS011;68171;13.882;99.692;2023-04-03T00:12:43;34.72;;;30.02;;
78820;SDS011;68171;13.882;99.692;2023-04-03T00:13:48;34.30;;;29.23;;
78820;SDS011;68171;13.882;99.692;2023-04-03T00:14:55;39.57;;;29.33;;
78820;SDS011;68171;13.882;99.692;2023-04-03T00:16:01;34.90;;;28.50;;
78820;SDS011;68171;13.882;99.692;2023-04-03T00:17:08;35.05;;;28.85;;
78820;SDS011;68171;13.882;99.692;2023-04-03T00:18:13;34.05;;;27.73;;
78820;SDS011;68171;13.882;99.692;2023-04-03T00:19:22;36.08;;;30.02;;
78820;SDS011;68171;13.882;99.692;2023-04-03T00:20:27;36.13;;;30.10;;
78820;SDS011;68171;13.882;99.692;2023-04-03T00:21:34;36.80;;;29.50;;
78820;SDS011;68171;13.882;99.692;2023-04-03T00:22:40;32.25;;;27.55;;
78820;SDS011;68171;13.882;99.692;2023-04-03T00:23:46;32.58;;;28.38;;
78820;SDS011;68171;13.882;99.692;2023-04-03T00:24:52;33.67;;;27.17;;
78820;SDS011;68171;13.882;99.692;2023-04-03T00:25:59;32.83;;;27.10;;
78820;SDS011;68171;13.882;99.692;2023-04-03T00:27:04;33.00;;;26.83;;
78820;SDS011;68171;13.882;99.692;2023-04-03T00:28:11;32.60;;;27.20;;
78820;SDS011;68171;13.882;99.692;2023-04-03T00:29:16;32.13;;;27.60;;
78820;SDS011;68171;13.882;99.692;2023-04-03T00:30:23;31.20;;;27.50;;
78820;SDS011;68171;13.882;99.692;2023-04-03T00:31:29;33.05;;;27.38;;
78820;SDS011;68171;13.882;99.692;2023-04-03T00:32:36;33.30;;;28.70;;
78820;SDS011;68171;13.882;99.692;2023-04-03T00:33:41;30.77;;;27.50;;
78820;SDS011;68171;13.882;99.692;2023-04-03T00:34:50;30.48;;;26.33;;
78820;SDS011;68171;13.882;99.692;2023-04-03T00:35:55;31.67;;;26.67;;
78820;SDS011;68171;13.882;99.692;2023-04-03T00:37:02;33.73;;;26.90;;
78820;SDS011;68171;13.882;99.692;2023-04-03T00:38:08;30.27;;;27.00;;
78820;SDS011;68171;13.882;99.692;2023-04-03T00:39:15;31.33;;;26.00;;
78820;SDS011;68171;13.882;99.692;2023-04-03T00:40:21;31.52;;;26.30;;
78820;SDS011;68171;13.882;99.692;2023-04-03T00:41:28;31.67;;;26.05;;
78820;SDS011;68171;13.882;99.692;2023-04-03T00:42:35;33.08;;;26.60;;
78820;SDS011;68171;13.882;99.692;2023-04-03T00:43:42;32.45;;;26.25;;
78820;SDS011;68171;13.882;99.692;2023-04-03T00:46:29;31.70;;;26.23;;
78820;SDS011;68171;13.882;99.692;2023-04-03T00:47:36;33.15;;;26.65;;
78820;SDS011;68171;13.882;99.692;2023-04-03T00:48:41;31.50;;;25.07;;
78820;SDS011;68171;13.882;99.692;2023-04-03T00:49:51;32.90;;;25.38;;
78820;SDS011;68171;13.882;99.692;2023-04-03T00:50:57;30.48;;;25.55;;
78820;SDS011;68171;13.882;99.692;2023-04-03T00:52:04;32.85;;;26.80;;
78820;SDS011;68171;13.882;99.692;2023-04-03T00:53:11;31.92;;;26.38;;
78820;SDS011;68171;13.882;99.692;2023-04-03T00:54:19;29.63;;;26.00;;
78820;SDS011;68171;13.882;99.692;2023-04-03T00:55:25;28.77;;;24.42;;
78820;SDS011;68171;13.882;99.692;2023-04-03T00:56:31;32.95;;;25.58;;
78820;SDS011;68171;13.882;99.692;2023-04-03T00:57:37;31.50;;;26.83;;
78820;SDS011;68171;13.882;99.692;2023-04-03T00:58:44;33.38;;;26.23;;
78820;SDS011;68171;13.882;99.692;2023-04-03T00:59:55;30.57;;;25.90;;
78820;SDS011;68171;13.882;99.692;2023-04-03T01:01:05;34.20;;;26.45;;
78820;SDS011;68171;13.882;99.692;2023-04-03T01:02:13;31.35;;;26.33;;
78820;SDS011;68171;13.882;99.692;2023-04-03T01:03:19;32.60;;;26.58;;
78820;SDS011;68171;13.882;99.692;2023-04-03T01:04:29;31.45;;;26.05;;
78820;SDS011;68171;13.882;99.692;2023-04-03T01:05:37;31.50;;;26.70;;
78820;SDS011;68171;13.882;99.692;2023-04-03T01:06:43;35.03;;;27.25;;
78820;SDS011;68171;13.882;99.692;2023-04-03T01:07:49;35.10;;;26.77;;
78820;SDS011;68171;13.882;99.692;2023-04-03T01:08:57;29.88;;;25.85;;
78820;SDS011;68171;13.882;99.692;2023-04-03T01:10:05;31.77;;;26.30;;
78820;SDS011;68171;13.882;99.692;2023-04-03T01:11:11;31.67;;;26.23;;
78820;SDS011;68171;13.882;99.692;2023-04-03T01:12:19;32.22;;;26.77;;
78820;SDS011;68171;13.882;99.692;2023-04-03T01:13:25;31.60;;;26.02;;
78820;SDS011;68171;13.882;99.692;2023-04-03T01:14:33;33.60;;;26.75;;
78820;SDS011;68171;13.882;99.692;2023-04-03T01:15:39;32.70;;;25.95;;
78820;SDS011;68171;13.882;99.692;2023-04-03T01:16:51;30.55;;;25.25;;
78820;SDS011;68171;13.882;99.692;2023-04-03T01:17:57;28.73;;;25.60;;
78820;SDS011;68171;13.882;99.692;2023-04-03T01:19:04;35.97;;;27.38;;
78820;SDS011;68171;13.882;99.692;2023-04-03T01:22:05;32.20;;;25.98;;
78820;SDS011;68171;13.882;99.692;2023-04-03T01:23:22;31.00;;;25.47;;
78820;SDS011;68171;13.882;99.692;2023-04-03T01:24:34;35.53;;;26.42;;
78820;SDS011;68171;13.882;99.692;2023-04-03T01:25:43;34.75;;;26.05;;
78820;SDS011;68171;13.882;99.692;2023-04-03T01:26:48;30.77;;;25.67;;
78820;SDS011;68171;13.882;99.692;2023-04-03T01:27:55;31.17;;;26.10;;
78820;SDS011;68171;13.882;99.692;2023-04-03T01:29:00;31.73;;;25.73;;
78820;SDS011;68171;13.882;99.692;2023-04-03T01:30:08;30.60;;;25.88;;
78820;SDS011;68171;13.882;99.692;2023-04-03T01:31:16;34.22;;;26.73;;
78820;SDS011;68171;13.882;99.692;2023-04-03T01:32:27;33.53;;;26.98;;
78820;SDS011;68171;13.882;99.692;2023-04-03T01:33:34;31.60;;;26.83;;
78820;SDS011;68171;13.882;99.692;2023-04-03T01:34:40;35.53;;;28.27;;
78820;SDS011;68171;13.882;99.692;2023-04-03T01:35:46;33.15;;;26.92;;
78820;SDS011;68171;13.882;99.692;2023-04-03T01:36:52;33.13;;;26.88;;
78820;SDS011;68171;13.882;99.692;2023-04-03T01:37:58;33.08;;;26.13;;
78820;SDS011;68171;13.882;99.692;2023-04-03T01:39:04;33.33;;;26.55;;
78820;SDS011;68171;13.882;99.692;2023-04-03T01:40:11;35.90;;;26.80;;
78820;SDS011;68171;13.882;99.692;2023-04-03T01:41:18;31.52;;;26.27;;
78820;SDS011;68171;13.882;99.692;2023-04-03T01:42:24;31.50;;;26.77;;
78820;SDS011;68171;13.882;99.692;2023-04-03T01:43:31;30.50;;;27.20;;
78820;SDS011;68171;13.882;99.692;2023-04-03T01:44:37;30.92;;;27.30;;
78820;SDS011;68171;13.882;99.692;2023-04-03T01:45:43;32.23;;;26.27;;
78820;SDS011;68171;13.882;99.692;2023-04-03T01:46:50;32.70;;;27.77;;
78820;SDS011;68171;13.882;99.692;2023-04-03T01:47:58;32.90;;;27.23;;
78820;SDS011;68171;13.882;99.692;2023-04-03T01:49:03;31.02;;;26.73;;
78820;SDS011;68171;13.882;99.692;2023-04-03T01:50:10;35.55;;;27.10;;
78820;SDS011;68171;13.882;99.692;2023-04-03T01:51:16;30.98;;;26.80;;
78820;SDS011;68171;13.882;99.692;2023-04-03T01:52:23;31.33;;;26.50;;
78820;SDS011;68171;13.882;99.692;2023-04-03T01:53:28;30.55;;;26.80;;
78820;SDS011;68171;13.882;99.692;2023-04-03T01:54:35;31.45;;;26.15;;
78820;SDS011;68171;13.882;99.692;2023-04-03T01:55:40;31.42;;;27.13;;
78820;SDS011;68171;13.882;99.692;2023-04-03T01:56:47;29.87;;;25.63;;
78820;SDS011;68171;13.882;99.692;2023-04-03T01:57:52;34.08;;;26.75;;
78820;SDS011;68171;13.882;99.692;2023-04-03T01:58:59;31.25;;;27.35;;
78820;SDS011;68171;13.882;99.692;2023-04-03T02:00:05;31.50;;;27.02;;
78820;SDS011;68171;13.882;99.692;2023-04-03T02:01:12;29.52;;;26.08;;
78820;SDS011;68171;13.882;99.692;2023-04-03T02:02:18;31.70;;;26.38;;
78820;SDS011;68171;13.882;99.692;2023-04-03T02:03:27;30.75;;;26.92;;
78820;SDS011;68171;13.882;99.692;2023-04-03T02:04:32;30.70;;;26.05;;
78820;SDS011;68171;13.882;99.692;2023-04-03T02:05:39;36.92;;;29.23;;
78820;SDS011;68171;13.882;99.692;2023-04-03T02:06:44;31.48;;;27.05;;
78820;SDS011;68171;13.882;99.692;2023-04-03T02:07:51;32.00;;;27.50;;
78820;SDS011;68171;13.882;99.692;2023-04-03T02:08:56;29.42;;;25.10;;
78820;SDS011;68171;13.882;99.692;2023-04-03T02:10:03;30.27;;;26.15;;
78820;SDS011;68171;13.882;99.692;2023-04-03T02:11:09;34.05;;;26.73;;
78820;SDS011;68171;13.882;99.692;2023-04-03T02:12:16;31.90;;;25.42;;
78820;SDS011;68171;13.882;99.692;2023-04-03T02:13:22;33.75;;;26.92;;
78820;SDS011;68171;13.882;99.692;2023-04-03T02:14:28;31.20;;;25.80;;
78820;SDS011;68171;13.882;99.692;2023-04-03T02:15:34;30.50;;;27.02;;
78820;SDS011;68171;13.882;99.692;2023-04-03T02:16:43;29.63;;;25.75;;
78820;SDS011;68171;13.882;99.692;2023-04-03T02:17:48;31.85;;;25.85;;
78820;SDS011;68171;13.882;99.692;2023-04-03T02:18:57;28.67;;;25.57;;
78820;SDS011;68171;13.882;99.692;2023-04-03T02:20:03;29.45;;;25.85;;
78820;SDS011;68171;13.882;99.692;2023-04-03T02:21:10;30.17;;;25.13;;
78820;SDS011;68171;13.882;99.692;2023-04-03T02:22:15;28.40;;;24.58;;
78820;SDS011;68171;13.882;99.692;2023-04-03T02:23:22;29.20;;;24.80;;
78820;SDS011;68171;13.882;99.692;2023-04-03T02:24:28;29.45;;;25.38;;
78820;SDS011;68171;13.882;99.692;2023-04-03T02:25:35;34.28;;;24.67;;
78820;SDS011;68171;13.882;99.692;2023-04-03T02:26:40;32.88;;;24.98;;
78820;SDS011;68171;13.882;99.692;2023-04-03T02:27:47;32.25;;;25.38;;
78820;SDS011;68171;13.882;99.692;2023-04-03T02:28:52;28.42;;;24.73;;
78820;SDS011;68171;13.882;99.692;2023-04-03T02:29:59;31.70;;;25.27;;
78820;SDS011;68171;13.882;99.692;2023-04-03T02:31:05;28.70;;;25.08;;
78820;SDS011;68171;13.882;99.692;2023-04-03T02:32:12;29.10;;;24.60;;
78820;SDS011;68171;13.882;99.692;2023-04-03T02:33:17;30.90;;;24.30;;
78820;SDS011;68171;13.882;99.692;2023-04-03T02:34:26;32.00;;;24.48;;
78820;SDS011;68171;13.882;99.692;2023-04-03T02:35:31;31.90;;;24.13;;
78820;SDS011;68171;13.882;99.692;2023-04-03T02:36:38;29.55;;;23.45;;
78820;SDS011;68171;13.882;99.692;2023-04-03T02:37:43;29.00;;;24.00;;
78820;SDS011;68171;13.882;99.692;2023-04-03T02:38:50;31.40;;;25.10;;
78820;SDS011;68171;13.882;99.692;2023-04-03T02:39:55;28.55;;;24.55;;
78820;SDS011;68171;13.882;99.692;2023-04-03T02:41:03;28.47;;;24.50;;
78820;SDS011;68171;13.882;99.692;2023-04-03T02:42:11;30.33;;;24.42;;
78820;SDS011;68171;13.882;99.692;2023-04-03T02:43:17;28.90;;;23.20;;
78820;SDS011;68171;13.882;99.692;2023-04-03T02:44:24;29.50;;;25.50;;
78820;SDS011;68171;13.882;99.692;2023-04-03T02:45:29;29.42;;;23.45;;
78820;SDS011;68171;13.882;99.692;2023-04-03T02:46:36;28.52;;;23.67;;
78820;SDS011;68171;13.882;99.692;2023-04-03T02:47:41;29.73;;;23.60;;
78820;SDS011;68171;13.882;99.692;2023-04-03T02:48:48;29.55;;;24.48;;
78820;SDS011;68171;13.882;99.692;2023-04-03T02:49:55;30.05;;;24.92;;
78820;SDS011;68171;13.882;99.692;2023-04-03T02:51:02;27.13;;;23.95;;
78820;SDS011;68171;13.882;99.692;2023-04-03T02:52:08;29.80;;;24.10;;
78820;SDS011;68171;13.882;99.692;2023-04-03T02:53:15;28.10;;;23.67;;
78820;SDS011;68171;13.882;99.692;2023-04-03T02:54:20;29.90;;;25.35;;
78820;SDS011;68171;13.882;99.692;2023-04-03T02:55:31;30.00;;;24.23;;
78820;SDS011;68171;13.882;99.692;2023-04-03T02:56:36;28.75;;;23.70;;
78820;SDS011;68171;13.882;99.692;2023-04-03T02:57:43;27.15;;;23.67;;
78820;SDS011;68171;13.882;99.692;2023-04-03T02:58:48;26.92;;;23.15;;
78820;SDS011;68171;13.882;99.692;2023-04-03T02:59:55;28.38;;;23.70;;
78820;SDS011;68171;13.882;99.692;2023-04-03T03:01:00;28.15;;;24.92;;
78820;SDS011;68171;13.882;99.692;2023-04-03T03:02:07;28.13;;;24.30;;
78820;SDS011;68171;13.882;99.692;2023-04-03T03:03:13;29.17;;;24.10;;
78820;SDS011;68171;13.882;99.692;2023-04-03T03:04:19;28.52;;;23.55;;
78820;SDS011;68171;13.882;99.692;2023-04-03T03:05:30;28.95;;;24.20;;
78820;SDS011;68171;13.882;99.692;2023-04-03T03:06:36;28.73;;;25.10;;
78820;SDS011;68171;13.882;99.692;2023-04-03T03:07:44;28.75;;;24.73;;
78820;SDS011;68171;13.882;99.692;2023-04-03T03:08:51;28.88;;;24.60;;
78820;SDS011;68171;13.882;99.692;2023-04-03T03:09:57;28.33;;;25.13;;
78820;SDS011;68171;13.882;99.692;2023-04-03T03:11:04;29.52;;;25.27;;
78820;SDS011;68171;13.882;99.692;2023-04-03T03:12:09;27.15;;;23.98;;
78820;SDS011;68171;13.882;99.692;2023-04-03T03:13:16;26.83;;;23.83;;
78820;SDS011;68171;13.882;99.692;2023-04-03T03:14:21;30.80;;;23.93;;
78820;SDS011;68171;13.882;99.692;2023-04-03T03:15:28;27.52;;;24.45;;
78820;SDS011;68171;13.882;99.692;2023-04-03T03:16:33;27.90;;;23.75;;
78820;SDS011;68171;13.882;99.692;2023-04-03T03:17:40;27.95;;;24.77;;
78820;SDS011;68171;13.882;99.692;2023-04-03T03:18:46;29.63;;;24.70;;
78820;SDS011;68171;13.882;99.692;2023-04-03T03:19:52;31.67;;;25.88;;
78820;SDS011;68171;13.882;99.692;2023-04-03T03:21:00;28.13;;;23.35;;
78820;SDS011;68171;13.882;99.692;2023-04-03T03:22:07;26.38;;;23.52;;
78820;SDS011;68171;13.882;99.692;2023-04-03T03:23:13;26.50;;;23.05;;
78820;SDS011;68171;13.882;99.692;2023-04-03T03:24:19;25.20;;;21.95;;
78820;SDS011;68171;13.882;99.692;2023-04-03T03:25:25;25.57;;;22.80;;
78820;SDS011;68171;13.882;99.692;2023-04-03T03:26:31;28.60;;;24.90;;
78820;SDS011;68171;13.882;99.692;2023-04-03T03:27:37;27.00;;;24.08;;
78820;SDS011;68171;13.882;99.692;2023-04-03T03:28:43;25.70;;;22.83;;
78820;SDS011;68171;13.882;99.692;2023-04-03T03:29:49;29.15;;;23.88;;
78820;SDS011;68171;13.882;99.692;2023-04-03T03:30:56;27.38;;;24.40;;
78820;SDS011;68171;13.882;99.692;2023-04-03T03:32:02;27.80;;;23.77;;
78820;SDS011;68171;13.882;99.692;2023-04-03T03:33:09;28.52;;;25.13;;
78820;SDS011;68171;13.882;99.692;2023-04-03T03:34:14;26.92;;;23.77;;
78820;SDS011;68171;13.882;99.692;2023-04-03T03:35:21;27.98;;;24.38;;
78820;SDS011;68171;13.882;99.692;2023-04-03T03:36:28;26.40;;;23.40;;
78820;SDS011;68171;13.882;99.692;2023-04-03T03:37:35;27.77;;;23.60;;
78820;SDS011;68171;13.882;99.692;2023-04-03T03:38:41;26.48;;;23.60;;
78820;SDS011;68171;13.882;99.692;2023-04-03T03:39:47;27.70;;;23.55;;
78820;SDS011;68171;13.882;99.692;2023-04-03T03:40:54;25.65;;;22.95;;
78820;SDS011;68171;13.882;99.692;2023-04-03T03:42:00;30.00;;;26.35;;
78820;SDS011;68171;13.882;99.692;2023-04-03T03:43:06;26.95;;;23.58;;
78820;SDS011;68171;13.882;99.692;2023-04-03T03:44:12;28.00;;;24.75;;
78820;SDS011;68171;13.882;99.692;2023-04-03T03:45:18;28.42;;;25.42;;
78820;SDS011;68171;13.882;99.692;2023-04-03T03:46:24;28.55;;;24.85;;
78820;SDS011;68171;13.882;99.692;2023-04-03T03:47:31;27.53;;;23.83;;
78820;SDS011;68171;13.882;99.692;2023-04-03T03:48:36;25.63;;;22.83;;
78820;SDS011;68171;13.882;99.692;2023-04-03T03:49:43;27.50;;;23.83;;
78820;SDS011;68171;13.882;99.692;2023-04-03T03:50:49;28.67;;;25.25;;
78820;SDS011;68171;13.882;99.692;2023-04-03T03:51:57;27.27;;;24.23;;
78820;SDS011;68171;13.882;99.692;2023-04-03T03:53:03;28.60;;;24.25;;
78820;SDS011;68171;13.882;99.692;2023-04-03T03:54:09;27.80;;;24.80;;
78820;SDS011;68171;13.882;99.692;2023-04-03T03:55:16;26.42;;;23.25;;
78820;SDS011;68171;13.882;99.692;2023-04-03T03:56:21;27.25;;;24.35;;
78820;SDS011;68171;13.882;99.692;2023-04-03T03:57:28;29.30;;;25.55;;
78820;SDS011;68171;13.882;99.692;2023-04-03T03:58:34;27.47;;;23.97;;
78820;SDS011;68171;13.882;99.692;2023-04-03T03:59:41;28.97;;;25.87;;
78820;SDS011;68171;13.882;99.692;2023-04-03T04:00:47;29.05;;;25.45;;
78820;SDS011;68171;13.882;99.692;2023-04-03T04:01:54;30.98;;;24.10;;
78820;SDS011;68171;13.882;99.692;2023-04-03T04:02:59;30.27;;;24.08;;
78820;SDS011;68171;13.882;99.692;2023-04-03T04:04:06;28.17;;;25.02;;
78820;SDS011;68171;13.882;99.692;2023-04-03T04:05:13;28.38;;;24.17;;
78820;SDS011;68171;13.882;99.692;2023-04-03T04:06:19;34.38;;;25.13;;
78820;SDS011;68171;13.882;99.692;2023-04-03T04:07:27;27.33;;;24.42;;
78820;SDS011;68171;13.882;99.692;2023-04-03T04:08:33;31.63;;;25.95;;
78820;SDS011;68171;13.882;99.692;2023-04-03T04:09:40;28.80;;;24.17;;
78820;SDS011;68171;13.882;99.692;2023-04-03T04:10:45;26.83;;;23.97;;
78820;SDS011;68171;13.882;99.692;2023-04-03T04:11:52;28.98;;;25.80;;
78820;SDS011;68171;13.882;99.692;2023-04-03T04:12:57;29.27;;;24.38;;
78820;SDS011;68171;13.882;99.692;2023-04-03T04:14:04;27.92;;;24.92;;
78820;SDS011;68171;13.882;99.692;2023-04-03T04:15:10;28.15;;;25.15;;
78820;SDS011;68171;13.882;99.692;2023-04-03T04:16:16;29.10;;;24.45;;
78820;SDS011;68171;13.882;99.692;2023-04-03T04:17:22;26.67;;;23.88;;
78820;SDS011;68171;13.882;99.692;2023-04-03T04:18:29;27.50;;;24.55;;
78820;SDS011;68171;13.882;99.692;2023-04-03T04:19:34;30.25;;;26.90;;
78820;SDS011;68171;13.882;99.692;2023-04-03T04:20:41;29.53;;;26.00;;
78820;SDS011;68171;13.882;99.692;2023-04-03T04:21:46;29.00;;;25.43;;
78820;SDS011;68171;13.882;99.692;2023-04-03T04:22:55;29.00;;;24.58;;
78820;SDS011;68171;13.882;99.692;2023-04-03T04:24:00;26.60;;;23.77;;
78820;SDS011;68171;13.882;99.692;2023-04-03T04:25:07;28.45;;;25.45;;
78820;SDS011;68171;13.882;99.692;2023-04-03T04:26:13;28.80;;;24.52;;
78820;SDS011;68171;13.882;99.692;2023-04-03T04:27:20;26.50;;;23.63;;
78820;SDS011;68171;13.882;99.692;2023-04-03T04:28:25;27.30;;;24.40;;
78820;SDS011;68171;13.882;99.692;2023-04-03T04:29:32;29.33;;;26.15;;
78820;SDS011;68171;13.882;99.692;2023-04-03T04:30:39;26.98;;;24.15;;
78820;SDS011;68171;13.882;99.692;2023-04-03T04:31:46;29.23;;;26.13;;
78820;SDS011;68171;13.882;99.692;2023-04-03T04:32:53;26.63;;;23.83;;
78820;SDS011;68171;13.882;99.692;2023-04-03T04:33:58;28.80;;;25.40;;
78820;SDS011;68171;13.882;99.692;2023-04-03T04:35:05;28.67;;;25.48;;
78820;SDS011;68171;13.882;99.692;2023-04-03T04:36:11;28.02;;;25.08;;
78820;SDS011;68171;13.882;99.692;2023-04-03T04:37:18;27.58;;;23.38;;
78820;SDS011;68171;13.882;99.692;2023-04-03T04:38:25;27.55;;;24.63;;
78820;SDS011;68171;13.882;99.692;2023-04-03T04:39:32;28.58;;;23.50;;
78820;SDS011;68171;13.882;99.692;2023-04-03T04:40:38;26.35;;;23.55;;
78820;SDS011;68171;13.882;99.692;2023-04-03T04:41:46;26.52;;;23.77;;
78820;SDS011;68171;13.882;99.692;2023-04-03T04:42:51;25.30;;;22.77;;
78820;SDS011;68171;13.882;99.692;2023-04-03T04:43:58;27.83;;;22.83;;
78820;SDS011;68171;13.882;99.692;2023-04-03T04:45:04;26.73;;;23.77;;
78820;SDS011;68171;13.882;99.692;2023-04-03T04:46:11;27.67;;;24.15;;
78820;SDS011;68171;13.882;99.692;2023-04-03T04:47:17;26.90;;;22.55;;
78820;SDS011;68171;13.882;99.692;2023-04-03T04:48:23;25.52;;;22.83;;
78820;SDS011;68171;13.882;99.692;2023-04-03T04:49:33;31.02;;;25.13;;
78820;SDS011;68171;13.882;99.692;2023-04-03T04:50:38;26.48;;;22.23;;
78820;SDS011;68171;13.882;99.692;2023-04-03T04:51:44;25.75;;;23.08;;
78820;SDS011;68171;13.882;99.692;2023-04-03T04:52:53;27.58;;;23.65;;
78820;SDS011;68171;13.882;99.692;2023-04-03T04:54:00;27.13;;;22.93;;
78820;SDS011;68171;13.882;99.692;2023-04-03T04:55:07;24.70;;;22.20;;
78820;SDS011;68171;13.882;99.692;2023-04-03T04:56:12;26.95;;;23.35;;
78820;SDS011;68171;13.882;99.692;2023-04-03T04:57:19;26.70;;;21.92;;
78820;SDS011;68171;13.882;99.692;2023-04-03T04:58:24;23.67;;;21.05;;
78820;SDS011;68171;13.882;99.692;2023-04-03T04:59:31;24.60;;;21.92;;
78820;SDS011;68171;13.882;99.692;2023-04-03T05:00:36;25.42;;;22.80;;
78820;SDS011;68171;13.882;99.692;2023-04-03T05:01:43;26.33;;;21.98;;
78820;SDS011;68171;13.882;99.692;2023-04-03T05:02:48;24.52;;;21.45;;
78820;SDS011;68171;13.882;99.692;2023-04-03T05:03:55;25.77;;;21.45;;
78820;SDS011;68171;13.882;99.692;2023-04-03T05:05:00;24.40;;;21.80;;
78820;SDS011;68171;13.882;99.692;2023-04-03T05:06:07;26.17;;;21.60;;
78820;SDS011;68171;13.882;99.692;2023-04-03T05:07:12;26.17;;;22.13;;
78820;SDS011;68171;13.882;99.692;2023-04-03T05:08:19;24.98;;;22.05;;
78820;SDS011;68171;13.882;99.692;2023-04-03T05:09:26;24.13;;;21.58;;
78820;SDS011;68171;13.882;99.692;2023-04-03T05:10:33;25.63;;;21.63;;
78820;SDS011;68171;13.882;99.692;2023-04-03T05:11:38;22.70;;;20.30;;
78820;SDS011;68171;13.882;99.692;2023-04-03T05:12:45;24.23;;;21.67;;
78820;SDS011;68171;13.882;99.692;2023-04-03T05:13:50;23.80;;;21.27;;
78820;SDS011;68171;13.882;99.692;2023-04-03T05:14:57;23.88;;;21.38;;
78820;SDS011;68171;13.882;99.692;2023-04-03T05:16:02;23.47;;;21.07;;
78820;SDS011;68171;13.882;99.692;2023-04-03T05:17:09;23.93;;;21.53;;
78820;SDS011;68171;13.882;99.692;2023-04-03T05:18:15;23.23;;;20.73;;
78820;SDS011;68171;13.882;99.692;2023-04-03T05:19:21;24.50;;;21.95;;
78820;SDS011;68171;13.882;99.692;2023-04-03T05:20:26;25.10;;;21.55;;
78820;SDS011;68171;13.882;99.692;2023-04-03T05:21:33;22.73;;;20.33;;
78820;SDS011;68171;13.882;99.692;2023-04-03T05:22:39;24.23;;;21.73;;
78820;SDS011;68171;13.882;99.692;2023-04-03T05:23:45;22.92;;;20.58;;
78820;SDS011;68171;13.882;99.692;2023-04-03T05:24:52;23.02;;;20.23;;
78820;SDS011;68171;13.882;99.692;2023-04-03T05:25:59;23.77;;;21.08;;
78820;SDS011;68171;13.882;99.692;2023-04-03T05:27:04;24.93;;;21.63;;
78820;SDS011;68171;13.882;99.692;2023-04-03T05:28:11;25.40;;;21.43;;
78820;SDS011;68171;13.882;99.692;2023-04-03T05:29:18;23.88;;;20.92;;
78820;SDS011;68171;13.882;99.692;2023-04-03T05:30:23;24.92;;;22.23;;
78820;SDS011;68171;13.882;99.692;2023-04-03T05:31:30;23.63;;;21.08;;
78820;SDS011;68171;13.882;99.692;2023-04-03T05:32:35;23.48;;;20.95;;
78820;SDS011;68171;13.882;99.692;2023-04-03T05:33:42;24.23;;;21.67;;
78820;SDS011;68171;13.882;99.692;2023-04-03T05:34:47;25.75;;;21.23;;
78820;SDS011;68171;13.882;99.692;2023-04-03T05:35:55;24.98;;;22.27;;
78820;SDS011;68171;13.882;99.692;2023-04-03T05:37:00;24.77;;;22.17;;
78820;SDS011;68171;13.882;99.692;2023-04-03T05:38:08;22.70;;;19.97;;
78820;SDS011;68171;13.882;99.692;2023-04-03T05:39:14;24.10;;;21.57;;
78820;SDS011;68171;13.882;99.692;2023-04-03T05:40:22;24.38;;;21.27;;
78820;SDS011;68171;13.882;99.692;2023-04-03T05:41:29;26.23;;;20.77;;
78820;SDS011;68171;13.882;99.692;2023-04-03T05:42:36;22.58;;;20.17;;
78820;SDS011;68171;13.882;99.692;2023-04-03T05:43:41;22.92;;;20.55;;
78820;SDS011;68171;13.882;99.692;2023-04-03T05:44:48;22.10;;;19.80;;
78820;SDS011;68171;13.882;99.692;2023-04-03T05:45:53;22.10;;;19.75;;
78820;SDS011;68171;13.882;99.692;2023-04-03T05:47:00;23.33;;;19.45;;
78820;SDS011;68171;13.882;99.692;2023-04-03T05:48:05;21.48;;;19.17;;
78820;SDS011;68171;13.882;99.692;2023-04-03T05:49:12;22.83;;;19.70;;
78820;SDS011;68171;13.882;99.692;2023-04-03T05:50:18;21.90;;;19.60;;
78820;SDS011;68171;13.882;99.692;2023-04-03T05:51:25;23.08;;;20.48;;
78820;SDS011;68171;13.882;99.692;2023-04-03T05:52:35;23.95;;;20.75;;
78820;SDS011;68171;13.882;99.692;2023-04-03T05:53:41;21.35;;;19.05;;
78820;SDS011;68171;13.882;99.692;2023-04-03T05:54:49;21.10;;;19.00;;
78820;SDS011;68171;13.882;99.692;2023-04-03T05:55:56;22.00;;;19.33;;
78820;SDS011;68171;13.882;99.692;2023-04-03T05:57:03;21.75;;;19.45;;
78820;SDS011;68171;13.882;99.692;2023-04-03T05:58:10;21.85;;;19.17;;
78820;SDS011;68171;13.882;99.692;2023-04-03T05:59:15;21.70;;;19.38;;
78820;SDS011;68171;13.882;99.692;2023-04-03T06:00:22;20.33;;;18.13;;
78820;SDS011;68171;13.882;99.692;2023-04-03T06:01:28;22.73;;;19.37;;
78820;SDS011;68171;13.882;99.692;2023-04-03T06:02:34;20.50;;;18.40;;
78820;SDS011;68171;13.882;99.692;2023-04-03T06:03:40;20.42;;;18.33;;
78820;SDS011;68171;13.882;99.692;2023-04-03T06:04:47;20.48;;;18.38;;
78820;SDS011;68171;13.882;99.692;2023-04-03T06:05:53;20.80;;;18.08;;
78820;SDS011;68171;13.882;99.692;2023-04-03T06:06:59;20.92;;;18.60;;
78820;SDS011;68171;13.882;99.692;2023-04-03T06:08:06;21.00;;;18.85;;
78820;SDS011;68171;13.882;99.692;2023-04-03T06:09:12;21.17;;;18.77;;
78820;SDS011;68171;13.882;99.692;2023-04-03T06:10:19;22.75;;;19.20;;
78820;SDS011;68171;13.882;99.692;2023-04-03T06:11:28;21.07;;;18.87;;
78820;SDS011;68171;13.882;99.692;2023-04-03T06:12:33;21.93;;;19.63;;
78820;SDS011;68171;13.882;99.692;2023-04-03T06:13:40;22.05;;;19.25;;
78820;SDS011;68171;13.882;99.692;2023-04-03T06:14:47;20.77;;;18.52;;
78820;SDS011;68171;13.882;99.692;2023-04-03T06:15:54;21.52;;;18.35;;
78820;SDS011;68171;13.882;99.692;2023-04-03T06:17:00;21.50;;;18.98;;
78820;SDS011;68171;13.882;99.692;2023-04-03T06:18:07;22.45;;;18.50;;
78820;SDS011;68171;13.882;99.692;2023-04-03T06:19:14;20.50;;;18.40;;
78820;SDS011;68171;13.882;99.692;2023-04-03T06:20:20;21.48;;;18.48;;
78820;SDS011;68171;13.882;99.692;2023-04-03T06:21:27;22.25;;;18.75;;
78820;SDS011;68171;13.882;99.692;2023-04-03T06:22:32;21.27;;;18.53;;
78820;SDS011;68171;13.882;99.692;2023-04-03T06:23:39;21.20;;;18.70;;
78820;SDS011;68171;13.882;99.692;2023-04-03T06:24:45;21.98;;;19.08;;
78820;SDS011;68171;13.882;99.692;2023-04-03T06:25:52;21.15;;;18.95;;
78820;SDS011;68171;13.882;99.692;2023-04-03T06:27:00;22.27;;;18.35;;